createdAt,value
2022-08-12T00:00:55.179Z,55.54
2022-08-12T00:03:40.771Z,55.66
2022-08-12T00:06:26.543Z,55.42
2022-08-12T00:09:12.007Z,55.01
2022-08-12T00:11:57.228Z,55.29
2022-08-12T00:14:43.591Z,55.06
2022-08-12T00:17:29.207Z,55.67
2022-08-12T00:20:14.613Z,55.05
2022-08-12T00:23:00.347Z,54.96
2022-08-12T00:26:21.103Z,55.72
2022-08-12T00:29:02.540Z,55.78
2022-08-12T00:31:49.614Z,55.46
2022-08-12T00:34:35.642Z,55.55
2022-08-12T00:37:21.013Z,55.24
2022-08-12T00:40:10.830Z,55.37
2022-08-12T00:42:41.245Z,55.25
2022-08-12T00:45:10.234Z,55.20
2022-08-12T00:47:40.668Z,55.48
2022-08-12T00:50:17.612Z,56.00
2022-08-12T00:52:46.541Z,55.34
2022-08-12T00:55:14.499Z,55.25
2022-08-12T00:57:47.767Z,55.08
2022-08-12T01:00:18.412Z,55.02
2022-08-12T01:02:52.049Z,55.23
2022-08-12T01:05:39.436Z,55.57
2022-08-12T01:08:25.357Z,55.52
2022-08-12T01:11:13.009Z,55.63
2022-08-12T01:13:42.455Z,56.13
2022-08-12T01:16:10.609Z,56.38
2022-08-12T01:18:41.552Z,55.80
2022-08-12T01:21:13.234Z,55.80
2022-08-12T01:23:50.240Z,55.73
2022-08-12T01:26:23.220Z,55.43
2022-08-12T01:28:53.801Z,55.63
2022-08-12T01:31:24.104Z,55.02
2022-08-12T01:33:59.640Z,55.18
2022-08-12T01:36:28.947Z,55.11
2022-08-12T01:38:59.015Z,55.13
2022-08-12T01:41:30.826Z,55.08
2022-08-12T01:44:00.936Z,55.14
2022-08-12T01:46:40.319Z,54.87
2022-08-12T01:49:21.723Z,55.44
2022-08-12T01:52:19.980Z,55.29
2022-08-12T01:54:47.064Z,55.67
2022-08-12T01:57:58.636Z,55.45
2022-08-12T02:00:12.169Z,54.95
2022-08-12T02:02:41.673Z,55.50
2022-08-12T02:05:35.018Z,55.41
2022-08-12T02:08:36.178Z,55.03
2022-08-12T02:11:17.298Z,54.97
2022-08-12T02:14:00.632Z,55.24
2022-08-12T02:16:39.923Z,55.17
2022-08-12T02:19:25.720Z,55.16
2022-08-12T02:21:59.785Z,55.44
2022-08-12T02:24:31.188Z,55.24
2022-08-12T02:26:59.603Z,56.22
2022-08-12T02:29:29.105Z,55.53
2022-08-12T02:31:59.121Z,55.26
2022-08-12T02:34:27.616Z,55.34
2022-08-12T02:36:55.983Z,55.70
2022-08-12T02:39:26.938Z,55.81
2022-08-12T02:41:56.048Z,55.40
2022-08-12T02:44:24.737Z,55.69
2022-08-12T02:46:55.469Z,55.38
2022-08-12T02:49:25.838Z,55.41
2022-08-12T02:51:54.848Z,55.79
2022-08-12T02:54:23.585Z,56.25
2022-08-12T02:56:52.350Z,56.51
2022-08-12T02:59:22.931Z,56.18
2022-08-12T03:01:54.233Z,56.08
2022-08-12T03:04:27.453Z,55.65
2022-08-12T03:07:03.705Z,56.33
2022-08-12T03:09:51.505Z,56.29
2022-08-12T03:12:25.446Z,56.46
2022-08-12T03:14:55.925Z,56.95
2022-08-12T03:17:29.202Z,57.03
2022-08-12T03:20:10.104Z,57.30
2022-08-12T03:22:40.951Z,57.54
2022-08-12T03:25:17.045Z,57.28
2022-08-12T03:27:49.641Z,57.50
2022-08-12T03:30:18.798Z,57.57
2022-08-12T03:32:48.822Z,57.58
2022-08-12T03:35:41.500Z,57.80
2022-08-12T03:38:12.122Z,57.85
2022-08-12T03:41:13.271Z,57.60
2022-08-12T03:44:04.817Z,57.62
2022-08-12T03:46:52.472Z,57.05
2022-08-12T03:49:37.623Z,57.66
2022-08-12T03:52:25.213Z,57.87
2022-08-12T03:55:10.713Z,57.83
2022-08-12T03:57:55.827Z,58.08
2022-08-12T04:00:24.652Z,57.88
2022-08-12T04:02:58.972Z,57.98
2022-08-12T04:05:54.750Z,57.79
2022-08-12T04:08:16.689Z,58.16
2022-08-12T04:11:03.337Z,58.30
2022-08-12T04:13:31.185Z,58.33
2022-08-12T04:16:03.048Z,58.36
2022-08-12T04:18:30.756Z,58.55
2022-08-12T04:20:59.087Z,59.18
2022-08-12T04:23:28.697Z,58.54
2022-08-12T04:25:56.403Z,58.53
2022-08-12T04:28:27.731Z,58.62
2022-08-12T04:30:57.958Z,58.77
2022-08-12T04:33:26.940Z,59.14
2022-08-12T04:35:55.049Z,59.58
2022-08-12T04:38:24.460Z,59.28
2022-08-12T04:40:53.687Z,59.26
2022-08-12T04:44:00.206Z,58.78
2022-08-12T04:46:09.351Z,59.51
2022-08-12T04:48:37.068Z,59.57
2022-08-12T04:51:06.717Z,59.86
2022-08-12T04:53:34.875Z,60.03
2022-08-12T04:56:05.504Z,60.58
2022-08-12T04:58:34.154Z,61.77
2022-08-12T05:01:03.082Z,61.37
2022-08-12T05:03:46.659Z,61.02
2022-08-12T05:06:26.932Z,61.10
2022-08-12T05:08:55.705Z,61.31
2022-08-12T05:11:27.680Z,61.42
2022-08-12T05:13:59.311Z,61.69
2022-08-12T05:16:31.116Z,61.59
2022-08-12T05:19:03.025Z,61.72
2022-08-12T05:21:30.700Z,62.89
2022-08-12T05:23:58.453Z,62.73
2022-08-12T05:26:41.996Z,63.40
2022-08-12T05:30:06.824Z,63.91
2022-08-12T05:32:04.297Z,62.91
2022-08-12T05:34:32.298Z,63.46
2022-08-12T05:37:00.405Z,64.08
2022-08-12T05:39:28.798Z,63.85
2022-08-12T05:41:57.888Z,64.12
2022-08-12T05:44:25.629Z,65.38
2022-08-12T05:46:53.401Z,65.19
2022-08-12T05:49:21.157Z,64.67
2022-08-12T05:51:48.956Z,63.41
2022-08-12T05:54:16.826Z,62.95
2022-08-12T05:56:45.516Z,63.33
2022-08-12T05:59:14.835Z,62.70
2022-08-12T06:02:09.383Z,63.42
2022-08-12T06:04:32.147Z,63.89
2022-08-12T06:07:48.732Z,62.95
2022-08-12T06:09:50.732Z,63.06
2022-08-12T06:12:23.630Z,62.41
2022-08-12T06:14:55.007Z,61.99
2022-08-12T06:17:22.962Z,61.96
2022-08-12T06:20:26.034Z,62.47
2022-08-12T06:22:39.572Z,62.00
2022-08-12T06:25:08.168Z,63.90
2022-08-12T06:27:43.109Z,62.92
2022-08-12T06:30:38.448Z,62.27
2022-08-12T06:33:21.971Z,62.88
2022-08-12T06:35:51.851Z,62.17
2022-08-12T06:38:21.306Z,62.58
2022-08-12T06:41:08.775Z,61.71
2022-08-12T06:44:04.760Z,62.48
2022-08-12T06:46:26.897Z,63.61
2022-08-12T06:48:58.704Z,64.20
2022-08-12T06:51:28.361Z,64.04
2022-08-12T06:53:57.830Z,63.69
2022-08-12T06:56:40.202Z,64.42
2022-08-12T06:59:14.071Z,63.25
2022-08-12T07:01:49.856Z,63.51
2022-08-12T07:04:37.503Z,62.95
2022-08-12T07:07:07.334Z,63.05
2022-08-12T07:10:03.957Z,63.42
2022-08-12T07:12:22.903Z,62.67
2022-08-12T07:14:56.253Z,63.17
2022-08-12T07:17:25.458Z,62.43
2022-08-12T07:19:53.643Z,62.42
2022-08-12T07:22:23.110Z,62.74
2022-08-12T07:25:11.349Z,61.47
2022-08-12T07:27:40.579Z,62.04
2022-08-12T07:30:09.892Z,61.49
2022-08-12T07:32:39.117Z,60.65
2022-08-12T07:35:07.791Z,60.89
2022-08-12T07:37:41.447Z,61.66
2022-08-12T07:40:11.524Z,61.28
2022-08-12T07:42:39.898Z,60.46
2022-08-12T07:45:09.405Z,60.70
2022-08-12T07:47:37.832Z,59.84
2022-08-12T07:50:09.237Z,59.30
2022-08-12T07:52:39.089Z,58.79
2022-08-12T07:55:08.356Z,59.22
2022-08-12T07:57:37.124Z,59.57
2022-08-12T08:00:06.343Z,58.13
2022-08-12T08:02:35.651Z,58.11
2022-08-12T08:05:04.079Z,57.97
2022-08-12T08:07:33.398Z,58.69
2022-08-12T08:10:03.499Z,58.00
2022-08-12T08:12:48.705Z,57.21
2022-08-12T08:15:16.810Z,56.28
2022-08-12T08:17:56.477Z,56.47
2022-08-12T08:20:28.813Z,55.94
2022-08-12T08:22:59.269Z,56.15
2022-08-12T08:25:35.581Z,57.05
2022-08-12T08:28:06.747Z,55.46
2022-08-12T08:30:35.135Z,55.21
2022-08-12T08:33:02.916Z,54.79
2022-08-12T08:35:48.300Z,53.34
2022-08-12T08:38:30.076Z,53.49
2022-08-12T08:42:15.682Z,53.45
2022-08-12T08:44:05.761Z,53.90
2022-08-12T08:46:37.249Z,53.95
2022-08-12T08:49:05.173Z,52.61
2022-08-12T08:51:33.245Z,50.35
2022-08-12T08:54:02.415Z,49.52
2022-08-12T08:56:30.260Z,50.74
2022-08-12T08:58:58.478Z,49.65
2022-08-12T09:01:26.261Z,50.11
2022-08-12T09:05:09.309Z,50.60
2022-08-12T09:06:53.664Z,49.30
2022-08-12T09:09:23.809Z,49.46
2022-08-12T09:12:12.264Z,49.04
2022-08-12T09:14:43.478Z,47.47
2022-08-12T09:17:20.941Z,47.20
2022-08-12T09:19:53.632Z,46.73
2022-08-12T09:22:29.216Z,45.04
2022-08-12T09:25:01.236Z,45.74
2022-08-12T09:27:57.645Z,45.65
2022-08-12T09:30:42.083Z,45.67
2022-08-12T09:33:18.944Z,44.85
2022-08-12T09:36:04.911Z,44.03
2022-08-12T09:38:35.221Z,45.08
2022-08-12T09:42:33.883Z,45.56
2022-08-12T09:44:37.943Z,43.83
2022-08-12T09:46:58.777Z,43.79
2022-08-12T09:49:28.114Z,44.64
2022-08-12T09:51:57.141Z,43.96
2022-08-12T09:54:32.957Z,43.26
2022-08-12T09:58:47.139Z,43.83
2022-08-12T10:00:16.687Z,43.83
2022-08-12T10:03:00.323Z,43.46
2022-08-12T10:06:27.094Z,43.22
2022-08-12T10:08:27.334Z,42.97
2022-08-12T10:11:20.190Z,42.50
2022-08-12T10:13:52.738Z,44.15
2022-08-12T10:16:23.079Z,42.45
2022-08-12T10:18:54.479Z,42.61
2022-08-12T10:21:36.480Z,42.94
2022-08-12T10:24:06.091Z,42.27
2022-08-12T10:26:52.100Z,42.51
2022-08-12T10:30:39.036Z,42.46
2022-08-12T10:32:43.766Z,41.39
2022-08-12T10:35:15.435Z,42.18
2022-08-12T10:38:33.281Z,41.59
2022-08-12T10:40:33.951Z,41.42
2022-08-12T10:43:19.800Z,41.98
2022-08-12T10:45:53.178Z,40.71
2022-08-12T10:48:26.754Z,41.73
2022-08-12T10:50:58.558Z,41.35
2022-08-12T10:53:45.129Z,41.81
2022-08-12T10:56:15.208Z,42.38
2022-08-12T10:58:46.028Z,42.25
2022-08-12T11:01:49.165Z,41.67
2022-08-12T11:04:25.624Z,40.26
2022-08-12T11:07:08.744Z,40.69
2022-08-12T11:10:00.305Z,40.32
2022-08-12T11:12:54.769Z,41.25
2022-08-12T11:15:32.838Z,41.20
2022-08-12T11:18:12.108Z,40.96
2022-08-12T11:20:47.866Z,40.77
2022-08-12T11:23:24.954Z,40.71
2022-08-12T11:26:05.890Z,40.86
2022-08-12T11:28:37.272Z,40.83
2022-08-12T11:31:12.229Z,40.17
2022-08-12T11:34:04.729Z,40.91
2022-08-12T11:36:31.336Z,40.33
2022-08-12T11:39:02.320Z,40.42
2022-08-12T11:41:33.563Z,40.73
2022-08-12T11:44:35.278Z,40.25
2022-08-12T11:46:51.233Z,39.70
2022-08-12T11:49:31.199Z,40.12
2022-08-12T11:52:03.078Z,41.09
2022-08-12T11:54:31.322Z,39.19
2022-08-12T11:57:00.525Z,39.06
2022-08-12T12:02:20.139Z,38.78
2022-08-12T12:04:52.843Z,38.79
2022-08-12T12:07:34.023Z,38.43
2022-08-12T12:10:11.872Z,39.29
2022-08-12T12:12:41.566Z,38.78
2022-08-12T12:15:25.475Z,38.41
2022-08-12T12:18:05.368Z,38.33
2022-08-12T12:20:35.398Z,38.39
2022-08-12T12:23:04.536Z,38.16
2022-08-12T12:26:07.291Z,37.99
2022-08-12T12:28:37.173Z,38.12
2022-08-12T12:31:14.649Z,37.64
2022-08-12T12:33:57.731Z,37.11
2022-08-12T12:36:29.930Z,37.64
2022-08-12T12:39:00.080Z,37.37
2022-08-12T12:42:43.458Z,37.46
2022-08-12T12:44:25.740Z,36.31
2022-08-12T12:46:58.216Z,37.05
2022-08-12T12:49:26.096Z,36.85
2022-08-12T12:52:18.685Z,38.35
2022-08-12T12:54:52.439Z,37.53
2022-08-12T12:57:36.420Z,38.24
2022-08-12T13:00:18.837Z,37.71
2022-08-12T13:02:55.482Z,37.94
2022-08-12T13:05:28.015Z,36.49
2022-08-12T13:08:00.765Z,36.88
2022-08-12T13:10:36.560Z,37.15
2022-08-12T13:14:06.396Z,36.42
2022-08-12T13:15:53.774Z,37.06
2022-08-12T13:18:33.371Z,36.93
2022-08-12T13:21:03.989Z,37.00
2022-08-12T13:23:35.906Z,37.93
2022-08-12T13:26:05.401Z,37.48
2022-08-12T13:28:33.504Z,38.02
2022-08-12T13:31:02.901Z,37.71
2022-08-12T13:34:29.671Z,37.45
2022-08-12T13:36:20.937Z,37.09
2022-08-12T13:38:54.239Z,37.20
2022-08-12T13:41:33.507Z,36.84
2022-08-12T13:44:03.051Z,37.75
2022-08-12T13:46:30.763Z,38.53
2022-08-12T13:48:58.677Z,38.51
2022-08-12T13:51:26.888Z,38.71
2022-08-12T13:54:11.773Z,37.67
2022-08-12T13:56:41.913Z,38.64
2022-08-12T13:59:24.416Z,38.12
2022-08-12T14:01:54.327Z,37.77
2022-08-12T14:04:25.020Z,37.45
2022-08-12T14:06:55.048Z,37.74
2022-08-12T14:09:29.647Z,37.27
2022-08-12T14:11:58.613Z,37.69
2022-08-12T14:14:27.024Z,37.53
2022-08-12T14:16:55.085Z,37.05
2022-08-12T14:19:27.130Z,36.93
2022-08-12T14:22:04.769Z,36.68
2022-08-12T14:24:40.552Z,36.82
2022-08-12T14:27:10.774Z,37.09
2022-08-12T14:30:04.967Z,36.73
2022-08-12T14:32:34.183Z,37.12
2022-08-12T14:35:02.931Z,37.33
2022-08-12T14:37:56.044Z,36.48
2022-08-12T14:40:27.513Z,36.36
2022-08-12T14:42:55.508Z,36.79
2022-08-12T14:45:44.525Z,36.29
2022-08-12T14:48:15.165Z,36.83
2022-08-12T14:52:10.295Z,36.47
2022-08-12T14:59:41.995Z,36.75
2022-08-12T15:02:28.399Z,37.25
2022-08-12T15:04:58.882Z,37.66
2022-08-12T15:07:33.474Z,36.95
2022-08-12T15:10:31.170Z,37.54
2022-08-12T15:13:07.674Z,37.34
2022-08-12T15:15:38.531Z,37.56
2022-08-12T15:18:13.835Z,37.66
2022-08-12T15:20:42.240Z,37.97
2022-08-12T15:23:17.619Z,38.25
2022-08-12T15:25:50.335Z,38.14
2022-08-12T15:28:33.386Z,37.83
2022-08-12T15:31:02.206Z,37.66
2022-08-12T15:33:45.449Z,37.94
2022-08-12T15:36:19.436Z,37.76
2022-08-12T15:39:04.146Z,38.08
2022-08-12T15:41:49.993Z,38.32
2022-08-12T15:44:38.423Z,38.76
2022-08-12T15:47:08.609Z,38.06
2022-08-12T15:49:43.144Z,37.56
2022-08-12T15:52:27.529Z,37.67
2022-08-12T15:54:58.775Z,37.66
2022-08-12T15:57:27.587Z,37.56
2022-08-12T16:00:06.912Z,37.40
2022-08-12T16:02:41.962Z,37.85
2022-08-12T16:06:12.267Z,37.83
2022-08-12T16:08:09.419Z,37.29
2022-08-12T16:10:43.197Z,36.97
2022-08-12T16:13:18.028Z,37.47
2022-08-12T16:16:02.076Z,37.81
2022-08-12T16:18:31.255Z,36.99
2022-08-12T16:20:59.024Z,37.60
2022-08-12T16:23:51.747Z,37.05
2022-08-12T16:26:20.286Z,37.24
2022-08-12T16:28:56.030Z,36.75
2022-08-12T16:31:25.865Z,36.79
2022-08-12T16:34:00.242Z,36.62
2022-08-12T16:36:30.283Z,37.19
2022-08-12T16:39:01.403Z,36.89
2022-08-12T16:41:38.223Z,36.42
2022-08-12T16:44:08.521Z,37.25
2022-08-12T16:46:38.089Z,37.37
2022-08-12T16:49:08.948Z,36.86
2022-08-12T16:51:45.956Z,36.97
2022-08-12T16:54:16.070Z,37.98
2022-08-12T16:56:54.861Z,37.39
2022-08-12T16:59:26.193Z,37.40
2022-08-12T17:02:00.603Z,38.07
2022-08-12T17:04:30.105Z,38.07
2022-08-12T17:06:57.874Z,38.13
2022-08-12T17:09:25.750Z,37.97
2022-08-12T17:12:03.007Z,37.86
2022-08-12T17:14:34.380Z,38.23
2022-08-12T17:17:04.638Z,37.66
2022-08-12T17:20:02.562Z,38.37
2022-08-12T17:22:34.436Z,38.83
2022-08-12T17:25:04.136Z,39.02
2022-08-12T17:27:44.807Z,38.67
2022-08-12T17:30:14.033Z,39.08
2022-08-12T17:32:53.146Z,39.24
2022-08-12T17:35:37.278Z,39.37
2022-08-12T17:38:07.104Z,39.71
2022-08-12T17:40:37.015Z,39.57
2022-08-12T17:43:57.873Z,40.24
2022-08-12T17:45:58.944Z,40.15
2022-08-12T17:48:34.661Z,40.60
2022-08-12T17:51:16.197Z,40.62
2022-08-12T17:54:05.682Z,40.89
2022-08-12T17:56:36.754Z,40.70
2022-08-12T17:59:07.650Z,40.32
2022-08-12T18:01:35.891Z,40.77
2022-08-12T18:04:22.117Z,41.07
2022-08-12T18:06:54.008Z,41.34
2022-08-12T18:09:32.329Z,41.27
2022-08-12T18:12:35.370Z,41.53
2022-08-12T18:15:08.530Z,42.10
2022-08-12T18:17:39.489Z,42.03
2022-08-12T18:20:12.580Z,41.94
2022-08-12T18:22:44.642Z,42.16
2022-08-12T18:26:15.643Z,42.13
2022-08-12T18:28:29.062Z,41.70
2022-08-12T18:31:03.111Z,42.31
2022-08-12T18:33:41.558Z,42.40
2022-08-12T18:36:13.759Z,42.61
2022-08-12T18:38:44.983Z,42.76
2022-08-12T18:41:30.636Z,42.87
2022-08-12T18:44:07.816Z,42.75
2022-08-12T18:46:54.469Z,43.01
2022-08-12T18:49:30.372Z,42.97
2022-08-12T18:52:05.257Z,42.96
2022-08-12T18:54:35.942Z,43.02
2022-08-12T18:57:19.988Z,43.00
2022-08-12T19:00:00.316Z,43.34
2022-08-12T19:02:32.688Z,43.04
2022-08-12T19:05:08.707Z,43.22
2022-08-12T19:07:49.877Z,42.92
2022-08-12T19:10:29.221Z,42.85
2022-08-12T19:13:23.324Z,42.98
2022-08-12T19:15:54.102Z,42.93
2022-08-12T19:18:24.246Z,43.17
2022-08-12T19:20:51.952Z,43.23
2022-08-12T19:23:22.251Z,43.40
2022-08-12T19:26:01.518Z,43.78
2022-08-12T19:28:35.247Z,43.88
2022-08-12T19:31:44.834Z,43.91
2022-08-12T19:37:16.973Z,43.92
2022-08-12T19:40:09.520Z,44.03
2022-08-12T19:42:36.967Z,44.22
2022-08-12T19:45:12.187Z,44.34
2022-08-12T19:47:41.349Z,44.22
2022-08-12T19:50:11.405Z,44.24
2022-08-12T19:52:40.976Z,44.58
2022-08-12T19:55:19.485Z,44.36
2022-08-12T19:58:02.726Z,44.72
2022-08-12T20:00:34.711Z,44.49
2022-08-12T20:03:06.920Z,44.53
2022-08-12T20:06:05.767Z,44.95
2022-08-12T20:08:31.478Z,44.75
2022-08-12T20:12:12.791Z,44.95
2022-08-12T20:14:00.545Z,45.16
2022-08-12T20:16:52.608Z,45.30
2022-08-12T20:19:28.532Z,45.18
2022-08-12T20:22:23.545Z,45.32
2022-08-12T20:24:55.351Z,45.22
2022-08-12T20:28:02.947Z,45.75
2022-08-12T20:30:20.178Z,45.73
2022-08-12T20:32:55.829Z,46.15
2022-08-12T20:35:25.069Z,46.28
2022-08-12T20:38:26.836Z,46.44
2022-08-12T20:40:55.431Z,47.14
2022-08-12T20:43:28.434Z,46.41
2022-08-12T20:46:00.050Z,46.29
2022-08-12T20:48:29.933Z,47.01
2022-08-12T20:51:03.993Z,46.90
2022-08-12T20:53:58.434Z,47.21
2022-08-12T20:56:30.530Z,46.94
2022-08-12T20:59:02.434Z,46.36
2022-08-12T21:01:46.510Z,46.75
2022-08-12T21:04:33.175Z,46.64
2022-08-12T21:07:09.632Z,46.78
2022-08-12T21:09:42.387Z,46.75
2022-08-12T21:12:28.508Z,46.75
2022-08-12T21:15:24.211Z,46.67
2022-08-12T21:18:11.094Z,47.39
2022-08-12T21:20:54.724Z,46.83
2022-08-12T21:23:23.240Z,47.60
2022-08-12T21:25:52.588Z,47.78
2022-08-12T21:28:27.736Z,47.53
2022-08-12T21:32:37.728Z,47.03
2022-08-12T21:34:07.280Z,47.66
2022-08-12T21:36:39.660Z,47.77
2022-08-12T21:39:20.760Z,47.67
2022-08-12T21:41:51.408Z,48.72
2022-08-12T21:44:24.442Z,48.75
2022-08-12T21:47:12.146Z,48.52
2022-08-12T21:49:55.246Z,47.90
2022-08-12T21:52:34.065Z,48.42
2022-08-12T21:55:03.159Z,48.60
2022-08-12T21:57:36.431Z,48.45
2022-08-12T22:00:19.636Z,48.78
2022-08-12T22:03:07.885Z,48.66
2022-08-12T22:05:49.825Z,48.40
2022-08-12T22:08:22.400Z,48.44
2022-08-12T22:10:56.368Z,49.17
2022-08-12T22:14:03.057Z,49.13
2022-08-12T22:16:13.181Z,49.56
2022-08-12T22:18:50.210Z,49.25
2022-08-12T22:21:22.293Z,49.68
2022-08-12T22:24:05.366Z,49.98
2022-08-12T22:26:37.428Z,49.83
2022-08-12T22:29:23.861Z,49.73
2022-08-12T22:31:54.909Z,49.87
2022-08-12T22:34:29.566Z,50.31
2022-08-12T22:36:57.955Z,50.21
2022-08-12T22:39:26.550Z,50.48
2022-08-12T22:42:12.231Z,50.03
2022-08-12T22:45:06.112Z,50.99
2022-08-12T22:47:54.719Z,50.27
2022-08-12T22:50:29.416Z,50.38
2022-08-12T22:53:15.103Z,50.54
2022-08-12T22:55:59.269Z,50.18
2022-08-12T22:58:33.751Z,50.36
2022-08-12T23:01:03.433Z,50.67
2022-08-12T23:03:48.787Z,51.25
2022-08-12T23:06:23.064Z,51.21
2022-08-12T23:08:51.597Z,51.31
2022-08-12T23:11:23.823Z,50.76
2022-08-12T23:13:56.718Z,50.51
2022-08-12T23:16:31.051Z,50.87
2022-08-12T23:19:10.991Z,51.30
2022-08-12T23:22:05.620Z,51.63
2022-08-12T23:24:39.416Z,51.49
2022-08-12T23:27:50.448Z,51.88
2022-08-12T23:30:18.387Z,52.04
2022-08-12T23:32:53.937Z,52.01
2022-08-12T23:35:22.563Z,52.28
2022-08-12T23:37:53.857Z,52.43
2022-08-12T23:40:24.352Z,52.17
2022-08-12T23:42:54.015Z,52.01
2022-08-12T23:45:31.493Z,51.35
2022-08-12T23:48:06.983Z,51.94
2022-08-12T23:50:35.175Z,52.36
2022-08-12T23:53:06.413Z,52.24
2022-08-12T23:55:45.478Z,52.09
2022-08-12T23:58:21.854Z,52.45
